sensor_id;sensor_type;location;lat;lon;timestamp;temperature;humidity
5246;DHT22;54412;51.206;6.888;2023-08-31T00:00:45;14.30;99.90
5246;DHT22;54412;51.206;6.888;2023-08-31T00:03:12;14.30;99.90
5246;DHT22;54412;51.206;6.888;2023-08-31T00:05:43;14.20;99.90
5246;DHT22;54412;51.206;6.888;2023-08-31T00:08:10;14.30;99.90
5246;DHT22;54412;51.206;6.888;2023-08-31T00:10:37;14.30;99.90
5246;DHT22;54412;51.206;6.888;2023-08-31T00:13:03;14.20;99.90
5246;DHT22;54412;51.206;6.888;2023-08-31T00:15:30;14.20;99.90
5246;DHT22;54412;51.206;6.888;2023-08-31T00:17:58;14.20;99.90
5246;DHT22;54412;51.206;6.888;2023-08-31T00:20:25;14.30;99.90
5246;DHT22;54412;51.206;6.888;2023-08-31T00:22:51;14.10;99.90
5246;DHT22;54412;51.206;6.888;2023-08-31T00:25:18;14.10;99.90
5246;DHT22;54412;51.206;6.888;2023-08-31T00:27:43;14.10;99.90
5246;DHT22;54412;51.206;6.888;2023-08-31T00:30:14;14.20;99.90
5246;DHT22;54412;51.206;6.888;2023-08-31T00:32:41;14.20;99.90
5246;DHT22;54412;51.206;6.888;2023-08-31T00:35:08;14.20;99.90
5246;DHT22;54412;51.206;6.888;2023-08-31T00:37:34;14.10;99.90
5246;DHT22;54412;51.206;6.888;2023-08-31T00:40:00;14.20;99.90
5246;DHT22;54412;51.206;6.888;2023-08-31T00:42:26;14.20;99.90
5246;DHT22;54412;51.206;6.888;2023-08-31T00:44:54;14.20;99.90
5246;DHT22;54412;51.206;6.888;2023-08-31T00:47:20;14.20;99.90
5246;DHT22;54412;51.206;6.888;2023-08-31T00:49:47;14.30;99.90
5246;DHT22;54412;51.206;6.888;2023-08-31T00:52:13;14.30;99.90
5246;DHT22;54412;51.206;6.888;2023-08-31T00:54:39;14.30;99.90
5246;DHT22;54412;51.206;6.888;2023-08-31T00:57:08;14.30;99.90
5246;DHT22;54412;51.206;6.888;2023-08-31T00:59:33;14.20;99.90
5246;DHT22;54412;51.206;6.888;2023-08-31T01:02:19;14.20;99.90
5246;DHT22;54412;51.206;6.888;2023-08-31T01:05:08;14.20;99.90
5246;DHT22;54412;51.206;6.888;2023-08-31T01:08:31;14.20;99.90
5246;DHT22;54412;51.206;6.888;2023-08-31T01:10:59;14.20;99.90
5246;DHT22;54412;51.206;6.888;2023-08-31T01:13:41;14.20;99.90
5246;DHT22;54412;51.206;6.888;2023-08-31T01:16:11;14.20;99.90
5246;DHT22;54412;51.206;6.888;2023-08-31T01:18:39;14.20;99.90
5246;DHT22;54412;51.206;6.888;2023-08-31T01:24:04;14.20;99.90
5246;DHT22;54412;51.206;6.888;2023-08-31T01:26:31;14.30;99.90
5246;DHT22;54412;51.206;6.888;2023-08-31T01:28:58;14.20;99.90
5246;DHT22;54412;51.206;6.888;2023-08-31T01:31:24;14.00;99.90
5246;DHT22;54412;51.206;6.888;2023-08-31T01:33:50;14.10;99.90
5246;DHT22;54412;51.206;6.888;2023-08-31T01:36:30;14.10;99.90
5246;DHT22;54412;51.206;6.888;2023-08-31T01:39:07;14.00;99.90
5246;DHT22;54412;51.206;6.888;2023-08-31T01:41:37;14.00;99.90
5246;DHT22;54412;51.206;6.888;2023-08-31T01:44:06;14.20;99.90
5246;DHT22;54412;51.206;6.888;2023-08-31T01:46:39;14.10;99.90
5246;DHT22;54412;51.206;6.888;2023-08-31T01:49:06;14.00;99.90
5246;DHT22;54412;51.206;6.888;2023-08-31T01:51:32;14.10;99.90
5246;DHT22;54412;51.206;6.888;2023-08-31T01:53:57;14.20;99.90
5246;DHT22;54412;51.206;6.888;2023-08-31T01:56:24;14.10;99.90
5246;DHT22;54412;51.206;6.888;2023-08-31T01:58:50;14.20;99.90
5246;DHT22;54412;51.206;6.888;2023-08-31T02:01:15;14.10;99.90
5246;DHT22;54412;51.206;6.888;2023-08-31T02:03:41;14.10;99.90
5246;DHT22;54412;51.206;6.888;2023-08-31T02:06:07;14.00;99.90
5246;DHT22;54412;51.206;6.888;2023-08-31T02:08:32;14.00;99.90
5246;DHT22;54412;51.206;6.888;2023-08-31T02:10:58;14.00;99.90
5246;DHT22;54412;51.206;6.888;2023-08-31T02:13:24;13.90;99.90
5246;DHT22;54412;51.206;6.888;2023-08-31T02:15:53;14.00;99.90
5246;DHT22;54412;51.206;6.888;2023-08-31T02:18:19;13.90;99.90
5246;DHT22;54412;51.206;6.888;2023-08-31T02:20:45;14.00;99.90
5246;DHT22;54412;51.206;6.888;2023-08-31T02:23:11;13.90;99.90
5246;DHT22;54412;51.206;6.888;2023-08-31T02:25:37;14.00;99.90
5246;DHT22;54412;51.206;6.888;2023-08-31T02:28:03;13.90;99.90
5246;DHT22;54412;51.206;6.888;2023-08-31T02:30:29;13.90;99.90
5246;DHT22;54412;51.206;6.888;2023-08-31T02:32:55;13.90;99.90
5246;DHT22;54412;51.206;6.888;2023-08-31T02:35:21;13.80;99.90
5246;DHT22;54412;51.206;6.888;2023-08-31T02:37:46;13.80;99.90
5246;DHT22;54412;51.206;6.888;2023-08-31T02:40:12;13.70;99.90
5246;DHT22;54412;51.206;6.888;2023-08-31T02:42:38;13.80;99.90
5246;DHT22;54412;51.206;6.888;2023-08-31T02:45:04;13.70;99.90
5246;DHT22;54412;51.206;6.888;2023-08-31T02:47:30;13.70;99.90
5246;DHT22;54412;51.206;6.888;2023-08-31T02:49:55;13.80;99.90
5246;DHT22;54412;51.206;6.888;2023-08-31T02:52:21;13.60;99.90
5246;DHT22;54412;51.206;6.888;2023-08-31T02:54:47;13.70;99.90
5246;DHT22;54412;51.206;6.888;2023-08-31T02:57:13;13.70;99.90
5246;DHT22;54412;51.206;6.888;2023-08-31T02:59:40;13.80;99.90
5246;DHT22;54412;51.206;6.888;2023-08-31T03:02:07;13.80;99.90
5246;DHT22;54412;51.206;6.888;2023-08-31T03:04:33;13.70;99.90
5246;DHT22;54412;51.206;6.888;2023-08-31T03:06:59;13.80;99.90
5246;DHT22;54412;51.206;6.888;2023-08-31T03:09:25;13.80;99.90
5246;DHT22;54412;51.206;6.888;2023-08-31T03:11:50;13.80;99.90
5246;DHT22;54412;51.206;6.888;2023-08-31T03:14:16;13.70;99.90
5246;DHT22;54412;51.206;6.888;2023-08-31T03:16:42;13.70;99.90
5246;DHT22;54412;51.206;6.888;2023-08-31T03:19:07;13.70;99.90
5246;DHT22;54412;51.206;6.888;2023-08-31T03:21:33;13.60;99.90
5246;DHT22;54412;51.206;6.888;2023-08-31T03:23:59;13.60;99.90
5246;DHT22;54412;51.206;6.888;2023-08-31T03:26:25;13.70;99.90
5246;DHT22;54412;51.206;6.888;2023-08-31T03:28:51;13.60;99.90
5246;DHT22;54412;51.206;6.888;2023-08-31T03:31:16;13.60;99.90
5246;DHT22;54412;51.206;6.888;2023-08-31T03:33:42;13.60;99.90
5246;DHT22;54412;51.206;6.888;2023-08-31T03:36:08;13.60;99.90
5246;DHT22;54412;51.206;6.888;2023-08-31T03:38:34;13.70;99.90
5246;DHT22;54412;51.206;6.888;2023-08-31T03:41:03;13.60;99.90
5246;DHT22;54412;51.206;6.888;2023-08-31T03:43:28;13.50;99.90
5246;DHT22;54412;51.206;6.888;2023-08-31T03:45:55;13.60;99.90
5246;DHT22;54412;51.206;6.888;2023-08-31T03:48:23;13.50;99.90
5246;DHT22;54412;51.206;6.888;2023-08-31T03:50:53;13.60;99.90
5246;DHT22;54412;51.206;6.888;2023-08-31T03:53:19;13.60;99.90
5246;DHT22;54412;51.206;6.888;2023-08-31T03:55:45;13.70;99.90
5246;DHT22;54412;51.206;6.888;2023-08-31T03:58:12;13.60;99.90
5246;DHT22;54412;51.206;6.888;2023-08-31T04:00:38;13.60;99.90
5246;DHT22;54412;51.206;6.888;2023-08-31T04:03:05;13.70;99.90
5246;DHT22;54412;51.206;6.888;2023-08-31T04:05:34;13.80;99.90
5246;DHT22;54412;51.206;6.888;2023-08-31T04:08:01;13.70;99.90
5246;DHT22;54412;51.206;6.888;2023-08-31T04:10:26;13.60;99.90
5246;DHT22;54412;51.206;6.888;2023-08-31T04:12:53;13.70;99.90
5246;DHT22;54412;51.206;6.888;2023-08-31T04:15:18;13.60;99.90
5246;DHT22;54412;51.206;6.888;2023-08-31T04:17:44;13.60;99.90
5246;DHT22;54412;51.206;6.888;2023-08-31T04:20:10;13.70;99.90
5246;DHT22;54412;51.206;6.888;2023-08-31T04:22:37;13.70;99.90
5246;DHT22;54412;51.206;6.888;2023-08-31T04:25:03;13.60;99.90
5246;DHT22;54412;51.206;6.888;2023-08-31T04:27:29;13.60;99.90
5246;DHT22;54412;51.206;6.888;2023-08-31T04:30:00;13.50;99.90
5246;DHT22;54412;51.206;6.888;2023-08-31T04:32:27;13.50;99.90
5246;DHT22;54412;51.206;6.888;2023-08-31T04:34:53;13.60;99.90
5246;DHT22;54412;51.206;6.888;2023-08-31T04:37:20;13.60;99.90
5246;DHT22;54412;51.206;6.888;2023-08-31T04:39:46;13.50;99.90
5246;DHT22;54412;51.206;6.888;2023-08-31T04:42:12;13.50;99.90
5246;DHT22;54412;51.206;6.888;2023-08-31T04:44:37;13.50;99.90
5246;DHT22;54412;51.206;6.888;2023-08-31T04:47:03;13.60;99.90
5246;DHT22;54412;51.206;6.888;2023-08-31T04:49:29;13.50;99.90
5246;DHT22;54412;51.206;6.888;2023-08-31T04:51:56;13.50;99.90
5246;DHT22;54412;51.206;6.888;2023-08-31T04:54:22;13.60;99.90
5246;DHT22;54412;51.206;6.888;2023-08-31T04:56:47;13.50;99.90
5246;DHT22;54412;51.206;6.888;2023-08-31T04:59:13;13.50;99.90
5246;DHT22;54412;51.206;6.888;2023-08-31T05:01:39;13.50;99.90
5246;DHT22;54412;51.206;6.888;2023-08-31T05:04:05;13.50;99.90
5246;DHT22;54412;51.206;6.888;2023-08-31T05:06:31;13.60;99.90
5246;DHT22;54412;51.206;6.888;2023-08-31T05:08:56;13.60;99.90
5246;DHT22;54412;51.206;6.888;2023-08-31T05:11:23;13.60;99.90
5246;DHT22;54412;51.206;6.888;2023-08-31T05:13:49;13.60;99.90
5246;DHT22;54412;51.206;6.888;2023-08-31T05:16:14;13.60;99.90
5246;DHT22;54412;51.206;6.888;2023-08-31T05:18:40;13.60;99.90
5246;DHT22;54412;51.206;6.888;2023-08-31T05:21:06;13.70;99.90
5246;DHT22;54412;51.206;6.888;2023-08-31T05:23:32;13.80;99.90
5246;DHT22;54412;51.206;6.888;2023-08-31T05:25:58;13.80;99.90
5246;DHT22;54412;51.206;6.888;2023-08-31T05:28:24;13.80;99.90
5246;DHT22;54412;51.206;6.888;2023-08-31T05:30:51;13.80;99.90
5246;DHT22;54412;51.206;6.888;2023-08-31T05:33:18;13.80;99.90
5246;DHT22;54412;51.206;6.888;2023-08-31T05:35:45;13.70;99.90
5246;DHT22;54412;51.206;6.888;2023-08-31T05:38:11;13.80;99.90
5246;DHT22;54412;51.206;6.888;2023-08-31T05:40:37;13.80;99.90
5246;DHT22;54412;51.206;6.888;2023-08-31T05:43:03;13.90;99.90
5246;DHT22;54412;51.206;6.888;2023-08-31T05:45:33;13.90;99.90
5246;DHT22;54412;51.206;6.888;2023-08-31T05:47:59;13.80;99.90
5246;DHT22;54412;51.206;6.888;2023-08-31T05:50:29;13.70;99.90
5246;DHT22;54412;51.206;6.888;2023-08-31T05:52:55;13.70;99.90
5246;DHT22;54412;51.206;6.888;2023-08-31T05:55:21;13.70;99.90
5246;DHT22;54412;51.206;6.888;2023-08-31T05:57:47;13.70;99.90
5246;DHT22;54412;51.206;6.888;2023-08-31T06:00:13;13.70;99.90
5246;DHT22;54412;51.206;6.888;2023-08-31T06:02:38;13.80;99.90
5246;DHT22;54412;51.206;6.888;2023-08-31T06:05:04;13.80;99.90
5246;DHT22;54412;51.206;6.888;2023-08-31T06:07:31;13.90;99.90
5246;DHT22;54412;51.206;6.888;2023-08-31T06:09:57;13.70;99.90
5246;DHT22;54412;51.206;6.888;2023-08-31T06:12:23;13.80;99.90
5246;DHT22;54412;51.206;6.888;2023-08-31T06:14:48;13.80;99.90
5246;DHT22;54412;51.206;6.888;2023-08-31T06:17:14;13.90;99.90
5246;DHT22;54412;51.206;6.888;2023-08-31T06:19:40;13.90;99.90
5246;DHT22;54412;51.206;6.888;2023-08-31T06:22:07;13.80;99.90
5246;DHT22;54412;51.206;6.888;2023-08-31T06:24:33;13.80;99.90
5246;DHT22;54412;51.206;6.888;2023-08-31T06:26:59;13.80;99.90
5246;DHT22;54412;51.206;6.888;2023-08-31T06:29:26;13.90;99.90
5246;DHT22;54412;51.206;6.888;2023-08-31T06:31:51;14.00;99.90
5246;DHT22;54412;51.206;6.888;2023-08-31T06:34:17;14.10;99.90
5246;DHT22;54412;51.206;6.888;2023-08-31T06:36:43;14.00;99.90
5246;DHT22;54412;51.206;6.888;2023-08-31T06:39:09;14.10;99.90
5246;DHT22;54412;51.206;6.888;2023-08-31T06:41:34;14.20;99.90
5246;DHT22;54412;51.206;6.888;2023-08-31T06:44:01;14.20;99.90
5246;DHT22;54412;51.206;6.888;2023-08-31T06:46:27;14.20;99.90
5246;DHT22;54412;51.206;6.888;2023-08-31T06:48:54;14.30;99.90
5246;DHT22;54412;51.206;6.888;2023-08-31T06:51:19;14.50;99.90
5246;DHT22;54412;51.206;6.888;2023-08-31T06:53:46;14.40;99.90
5246;DHT22;54412;51.206;6.888;2023-08-31T06:56:12;14.50;99.90
5246;DHT22;54412;51.206;6.888;2023-08-31T06:58:37;14.60;99.90
5246;DHT22;54412;51.206;6.888;2023-08-31T07:01:06;14.60;99.90
5246;DHT22;54412;51.206;6.888;2023-08-31T07:03:31;14.70;99.90
5246;DHT22;54412;51.206;6.888;2023-08-31T07:05:57;15.00;99.90
5246;DHT22;54412;51.206;6.888;2023-08-31T07:08:23;14.90;99.90
5246;DHT22;54412;51.206;6.888;2023-08-31T07:10:51;15.00;99.90
5246;DHT22;54412;51.206;6.888;2023-08-31T07:13:17;15.10;99.90
5246;DHT22;54412;51.206;6.888;2023-08-31T07:15:43;15.00;99.90
5246;DHT22;54412;51.206;6.888;2023-08-31T07:18:09;15.10;99.90
5246;DHT22;54412;51.206;6.888;2023-08-31T07:20:34;15.10;99.90
5246;DHT22;54412;51.206;6.888;2023-08-31T07:23:00;15.30;99.90
5246;DHT22;54412;51.206;6.888;2023-08-31T07:25:26;15.30;99.90
5246;DHT22;54412;51.206;6.888;2023-08-31T07:27:52;15.50;99.90
5246;DHT22;54412;51.206;6.888;2023-08-31T07:30:18;15.40;99.90
5246;DHT22;54412;51.206;6.888;2023-08-31T07:32:44;15.50;99.90
5246;DHT22;54412;51.206;6.888;2023-08-31T07:35:09;15.50;99.90
5246;DHT22;54412;51.206;6.888;2023-08-31T07:37:35;15.70;99.90
5246;DHT22;54412;51.206;6.888;2023-08-31T07:40:03;15.80;99.90
5246;DHT22;54412;51.206;6.888;2023-08-31T07:42:34;16.00;99.90
5246;DHT22;54412;51.206;6.888;2023-08-31T07:45:00;16.00;99.90
5246;DHT22;54412;51.206;6.888;2023-08-31T07:47:26;16.00;99.90
5246;DHT22;54412;51.206;6.888;2023-08-31T07:49:51;16.00;99.90
5246;DHT22;54412;51.206;6.888;2023-08-31T07:52:17;16.10;99.90
5246;DHT22;54412;51.206;6.888;2023-08-31T07:54:43;16.30;99.90
5246;DHT22;54412;51.206;6.888;2023-08-31T07:57:08;16.40;99.90
5246;DHT22;54412;51.206;6.888;2023-08-31T07:59:34;16.40;99.90
5246;DHT22;54412;51.206;6.888;2023-08-31T08:02:00;16.40;99.90
5246;DHT22;54412;51.206;6.888;2023-08-31T08:04:25;16.40;99.90
5246;DHT22;54412;51.206;6.888;2023-08-31T08:06:52;16.60;99.90
5246;DHT22;54412;51.206;6.888;2023-08-31T08:09:18;16.70;99.90
5246;DHT22;54412;51.206;6.888;2023-08-31T08:11:44;16.80;99.90
5246;DHT22;54412;51.206;6.888;2023-08-31T08:14:09;16.70;99.90
5246;DHT22;54412;51.206;6.888;2023-08-31T08:16:35;16.70;99.90
5246;DHT22;54412;51.206;6.888;2023-08-31T08:19:02;16.80;99.90
5246;DHT22;54412;51.206;6.888;2023-08-31T08:21:28;17.10;99.90
5246;DHT22;54412;51.206;6.888;2023-08-31T08:23:53;17.20;99.90
5246;DHT22;54412;51.206;6.888;2023-08-31T08:26:19;17.30;99.90
5246;DHT22;54412;51.206;6.888;2023-08-31T08:28:44;17.40;99.90
5246;DHT22;54412;51.206;6.888;2023-08-31T08:31:11;17.60;99.90
5246;DHT22;54412;51.206;6.888;2023-08-31T08:33:37;17.60;99.90
5246;DHT22;54412;51.206;6.888;2023-08-31T08:36:03;17.50;99.90
5246;DHT22;54412;51.206;6.888;2023-08-31T08:38:29;17.70;99.90
5246;DHT22;54412;51.206;6.888;2023-08-31T08:40:54;17.90;99.90
5246;DHT22;54412;51.206;6.888;2023-08-31T08:43:25;18.20;99.90
5246;DHT22;54412;51.206;6.888;2023-08-31T08:45:54;18.20;99.90
5246;DHT22;54412;51.206;6.888;2023-08-31T08:48:22;18.00;99.90
5246;DHT22;54412;51.206;6.888;2023-08-31T08:50:48;18.00;99.90
5246;DHT22;54412;51.206;6.888;2023-08-31T08:53:14;18.20;99.90
5246;DHT22;54412;51.206;6.888;2023-08-31T08:55:43;18.10;99.90
5246;DHT22;54412;51.206;6.888;2023-08-31T08:58:09;18.40;99.90
5246;DHT22;54412;51.206;6.888;2023-08-31T09:00:36;18.40;99.90
5246;DHT22;54412;51.206;6.888;2023-08-31T09:03:02;18.30;99.90
5246;DHT22;54412;51.206;6.888;2023-08-31T09:05:32;18.30;99.90
5246;DHT22;54412;51.206;6.888;2023-08-31T09:08:09;18.60;99.90
5246;DHT22;54412;51.206;6.888;2023-08-31T09:10:39;18.60;99.90
5246;DHT22;54412;51.206;6.888;2023-08-31T09:13:07;18.70;99.90
5246;DHT22;54412;51.206;6.888;2023-08-31T09:15:44;18.70;99.90
5246;DHT22;54412;51.206;6.888;2023-08-31T09:18:34;18.60;99.90
5246;DHT22;54412;51.206;6.888;2023-08-31T09:21:01;18.30;99.90
5246;DHT22;54412;51.206;6.888;2023-08-31T09:23:27;18.50;99.90
5246;DHT22;54412;51.206;6.888;2023-08-31T09:25:55;18.70;99.90
5246;DHT22;54412;51.206;6.888;2023-08-31T09:28:23;18.60;99.90
5246;DHT22;54412;51.206;6.888;2023-08-31T09:30:52;18.70;99.90
5246;DHT22;54412;51.206;6.888;2023-08-31T09:33:19;18.90;99.90
5246;DHT22;54412;51.206;6.888;2023-08-31T09:35:51;18.80;99.90
5246;DHT22;54412;51.206;6.888;2023-08-31T09:38:18;18.80;99.90
5246;DHT22;54412;51.206;6.888;2023-08-31T09:40:44;18.70;99.90
5246;DHT22;54412;51.206;6.888;2023-08-31T09:43:10;18.50;99.90
5246;DHT22;54412;51.206;6.888;2023-08-31T09:45:36;18.30;99.90
5246;DHT22;54412;51.206;6.888;2023-08-31T09:48:04;18.40;99.90
5246;DHT22;54412;51.206;6.888;2023-08-31T09:50:32;18.40;99.90
5246;DHT22;54412;51.206;6.888;2023-08-31T09:53:04;18.30;99.90
5246;DHT22;54412;51.206;6.888;2023-08-31T09:55:34;18.20;99.90
5246;DHT22;54412;51.206;6.888;2023-08-31T09:58:03;18.10;99.90
5246;DHT22;54412;51.206;6.888;2023-08-31T10:00:32;18.10;99.90
5246;DHT22;54412;51.206;6.888;2023-08-31T10:03:04;18.10;99.90
5246;DHT22;54412;51.206;6.888;2023-08-31T10:05:30;18.30;99.90
5246;DHT22;54412;51.206;6.888;2023-08-31T10:07:58;18.50;99.90
5246;DHT22;54412;51.206;6.888;2023-08-31T10:10:27;18.60;99.90
5246;DHT22;54412;51.206;6.888;2023-08-31T10:12:54;19.00;99.90
5246;DHT22;54412;51.206;6.888;2023-08-31T10:15:20;19.00;99.90
5246;DHT22;54412;51.206;6.888;2023-08-31T10:17:46;18.90;99.90
5246;DHT22;54412;51.206;6.888;2023-08-31T10:20:14;18.80;99.90
5246;DHT22;54412;51.206;6.888;2023-08-31T10:22:42;18.70;99.90
5246;DHT22;54412;51.206;6.888;2023-08-31T10:25:09;18.50;99.90
5246;DHT22;54412;51.206;6.888;2023-08-31T10:27:41;18.30;99.90
5246;DHT22;54412;51.206;6.888;2023-08-31T10:35:52;18.10;99.90
5246;DHT22;54412;51.206;6.888;2023-08-31T10:38:30;18.20;99.90
5246;DHT22;54412;51.206;6.888;2023-08-31T10:41:26;18.60;99.90
5246;DHT22;54412;51.206;6.888;2023-08-31T10:49:12;18.60;99.90
5246;DHT22;54412;51.206;6.888;2023-08-31T10:51:53;18.60;99.90
5246;DHT22;54412;51.206;6.888;2023-08-31T10:54:30;18.60;99.90
5246;DHT22;54412;51.206;6.888;2023-08-31T10:59:53;18.50;99.90
5246;DHT22;54412;51.206;6.888;2023-08-31T11:02:41;18.90;99.90
5246;DHT22;54412;51.206;6.888;2023-08-31T11:05:13;19.50;99.90
5246;DHT22;54412;51.206;6.888;2023-08-31T11:07:44;19.70;99.90
5246;DHT22;54412;51.206;6.888;2023-08-31T11:12:42;20.30;99.90
5246;DHT22;54412;51.206;6.888;2023-08-31T11:15:16;20.00;99.90
5246;DHT22;54412;51.206;6.888;2023-08-31T11:17:43;19.60;99.90
5246;DHT22;54412;51.206;6.888;2023-08-31T11:20:15;19.70;99.90
5246;DHT22;54412;51.206;6.888;2023-08-31T11:22:43;20.00;99.90
5246;DHT22;54412;51.206;6.888;2023-08-31T11:25:13;19.70;99.90
5246;DHT22;54412;51.206;6.888;2023-08-31T11:27:39;19.40;99.90
5246;DHT22;54412;51.206;6.888;2023-08-31T11:30:15;19.20;99.90
5246;DHT22;54412;51.206;6.888;2023-08-31T11:32:46;18.90;99.90
5246;DHT22;54412;51.206;6.888;2023-08-31T11:35:13;18.80;99.90
5246;DHT22;54412;51.206;6.888;2023-08-31T11:37:41;18.60;99.90
5246;DHT22;54412;51.206;6.888;2023-08-31T11:40:09;18.50;99.90
5246;DHT22;54412;51.206;6.888;2023-08-31T11:42:35;18.30;99.90
5246;DHT22;54412;51.206;6.888;2023-08-31T11:45:01;18.30;99.90
5246;DHT22;54412;51.206;6.888;2023-08-31T11:47:31;18.20;99.90
5246;DHT22;54412;51.206;6.888;2023-08-31T11:49:57;18.10;99.90
5246;DHT22;54412;51.206;6.888;2023-08-31T11:52:24;18.50;99.90
5246;DHT22;54412;51.206;6.888;2023-08-31T11:54:53;18.90;99.90
5246;DHT22;54412;51.206;6.888;2023-08-31T11:57:19;19.40;99.90
5246;DHT22;54412;51.206;6.888;2023-08-31T11:59:50;19.90;99.90
5246;DHT22;54412;51.206;6.888;2023-08-31T12:02:19;20.20;99.90
5246;DHT22;54412;51.206;6.888;2023-08-31T12:04:45;20.50;99.90
5246;DHT22;54412;51.206;6.888;2023-08-31T12:07:18;20.50;99.90
5246;DHT22;54412;51.206;6.888;2023-08-31T12:09:45;20.30;99.90
5246;DHT22;54412;51.206;6.888;2023-08-31T12:12:13;19.90;99.90
5246;DHT22;54412;51.206;6.888;2023-08-31T12:14:40;19.70;99.90
5246;DHT22;54412;51.206;6.888;2023-08-31T12:17:08;19.50;99.90
5246;DHT22;54412;51.206;6.888;2023-08-31T12:19:37;19.60;99.90
5246;DHT22;54412;51.206;6.888;2023-08-31T12:22:04;19.80;99.90
5246;DHT22;54412;51.206;6.888;2023-08-31T12:24:38;20.00;99.90
5246;DHT22;54412;51.206;6.888;2023-08-31T12:27:08;19.90;99.90
5246;DHT22;54412;51.206;6.888;2023-08-31T12:29:35;19.90;99.90
5246;DHT22;54412;51.206;6.888;2023-08-31T12:32:01;19.90;99.90
5246;DHT22;54412;51.206;6.888;2023-08-31T12:34:28;20.20;99.90
5246;DHT22;54412;51.206;6.888;2023-08-31T12:36:54;20.70;99.90
5246;DHT22;54412;51.206;6.888;2023-08-31T12:39:20;20.90;99.90
5246;DHT22;54412;51.206;6.888;2023-08-31T12:41:46;21.30;99.90
5246;DHT22;54412;51.206;6.888;2023-08-31T12:44:12;21.30;99.90
5246;DHT22;54412;51.206;6.888;2023-08-31T12:46:37;21.40;99.90
5246;DHT22;54412;51.206;6.888;2023-08-31T12:49:05;21.40;99.90
5246;DHT22;54412;51.206;6.888;2023-08-31T12:51:31;21.70;99.90
5246;DHT22;54412;51.206;6.888;2023-08-31T12:53:57;21.60;99.90
5246;DHT22;54412;51.206;6.888;2023-08-31T12:56:23;21.40;99.90
5246;DHT22;54412;51.206;6.888;2023-08-31T12:58:53;21.30;99.90
5246;DHT22;54412;51.206;6.888;2023-08-31T13:01:20;21.50;99.90
5246;DHT22;54412;51.206;6.888;2023-08-31T13:03:47;21.50;99.90
5246;DHT22;54412;51.206;6.888;2023-08-31T13:06:16;21.50;99.90
5246;DHT22;54412;51.206;6.888;2023-08-31T13:08:42;21.40;99.90
5246;DHT22;54412;51.206;6.888;2023-08-31T13:11:10;21.50;99.90
5246;DHT22;54412;51.206;6.888;2023-08-31T13:13:38;21.60;99.90
5246;DHT22;54412;51.206;6.888;2023-08-31T13:16:04;21.70;99.90
5246;DHT22;54412;51.206;6.888;2023-08-31T13:18:30;21.80;99.90
5246;DHT22;54412;51.206;6.888;2023-08-31T13:20:56;21.90;99.90
5246;DHT22;54412;51.206;6.888;2023-08-31T13:23:22;22.10;99.90
5246;DHT22;54412;51.206;6.888;2023-08-31T13:25:49;22.10;99.90
5246;DHT22;54412;51.206;6.888;2023-08-31T13:28:16;22.20;99.90
5246;DHT22;54412;51.206;6.888;2023-08-31T13:30:41;22.20;99.90
5246;DHT22;54412;51.206;6.888;2023-08-31T13:33:08;22.30;99.90
5246;DHT22;54412;51.206;6.888;2023-08-31T13:35:34;22.30;99.90
5246;DHT22;54412;51.206;6.888;2023-08-31T13:38:01;22.20;99.90
5246;DHT22;54412;51.206;6.888;2023-08-31T13:40:28;22.20;99.90
5246;DHT22;54412;51.206;6.888;2023-08-31T13:42:59;22.10;99.90
5246;DHT22;54412;51.206;6.888;2023-08-31T13:45:29;22.20;99.90
5246;DHT22;54412;51.206;6.888;2023-08-31T13:47:56;21.80;99.90
5246;DHT22;54412;51.206;6.888;2023-08-31T13:50:25;21.40;99.90
5246;DHT22;54412;51.206;6.888;2023-08-31T13:52:52;21.40;99.90
5246;DHT22;54412;51.206;6.888;2023-08-31T13:55:18;21.60;99.90
5246;DHT22;54412;51.206;6.888;2023-08-31T13:57:43;21.70;99.90
5246;DHT22;54412;51.206;6.888;2023-08-31T14:00:10;21.70;99.90
5246;DHT22;54412;51.206;6.888;2023-08-31T14:02:37;21.80;99.90
5246;DHT22;54412;51.206;6.888;2023-08-31T14:05:04;22.00;99.90
5246;DHT22;54412;51.206;6.888;2023-08-31T14:07:32;21.90;99.90
5246;DHT22;54412;51.206;6.888;2023-08-31T14:09:58;21.60;99.90
5246;DHT22;54412;51.206;6.888;2023-08-31T14:12:24;21.20;99.90
5246;DHT22;54412;51.206;6.888;2023-08-31T14:14:51;21.40;99.90
5246;DHT22;54412;51.206;6.888;2023-08-31T14:17:18;21.20;99.90
5246;DHT22;54412;51.206;6.888;2023-08-31T14:19:44;20.90;99.90
5246;DHT22;54412;51.206;6.888;2023-08-31T14:22:10;20.70;99.90
5246;DHT22;54412;51.206;6.888;2023-08-31T14:24:36;20.80;99.90
5246;DHT22;54412;51.206;6.888;2023-08-31T14:27:03;20.80;99.90
5246;DHT22;54412;51.206;6.888;2023-08-31T14:29:30;20.70;99.90
5246;DHT22;54412;51.206;6.888;2023-08-31T14:31:55;20.60;99.90
5246;DHT22;54412;51.206;6.888;2023-08-31T14:34:22;20.60;99.90
5246;DHT22;54412;51.206;6.888;2023-08-31T14:36:48;20.70;99.90
5246;DHT22;54412;51.206;6.888;2023-08-31T14:39:13;20.70;99.90
5246;DHT22;54412;51.206;6.888;2023-08-31T14:41:43;20.80;99.90
5246;DHT22;54412;51.206;6.888;2023-08-31T14:44:09;20.80;99.90
5246;DHT22;54412;51.206;6.888;2023-08-31T14:46:34;20.60;99.90
5246;DHT22;54412;51.206;6.888;2023-08-31T14:49:00;20.40;99.90
5246;DHT22;54412;51.206;6.888;2023-08-31T14:51:25;20.30;99.90
5246;DHT22;54412;51.206;6.888;2023-08-31T14:53:51;20.30;99.90
5246;DHT22;54412;51.206;6.888;2023-08-31T14:56:17;20.20;99.90
5246;DHT22;54412;51.206;6.888;2023-08-31T14:58:42;20.10;99.90
5246;DHT22;54412;51.206;6.888;2023-08-31T15:01:08;20.00;99.90
5246;DHT22;54412;51.206;6.888;2023-08-31T15:03:34;19.90;99.90
5246;DHT22;54412;51.206;6.888;2023-08-31T15:05:59;19.90;99.90
5246;DHT22;54412;51.206;6.888;2023-08-31T15:08:35;19.80;99.90
5246;DHT22;54412;51.206;6.888;2023-08-31T15:11:03;19.80;99.90
5246;DHT22;54412;51.206;6.888;2023-08-31T15:13:28;19.80;99.90
5246;DHT22;54412;51.206;6.888;2023-08-31T15:15:54;19.90;99.90
5246;DHT22;54412;51.206;6.888;2023-08-31T15:18:20;19.90;99.90
5246;DHT22;54412;51.206;6.888;2023-08-31T15:20:47;19.90;99.90
5246;DHT22;54412;51.206;6.888;2023-08-31T15:23:12;19.90;99.90
5246;DHT22;54412;51.206;6.888;2023-08-31T15:25:38;19.90;99.90
5246;DHT22;54412;51.206;6.888;2023-08-31T15:28:04;20.00;99.90
5246;DHT22;54412;51.206;6.888;2023-08-31T15:30:30;20.00;99.90
5246;DHT22;54412;51.206;6.888;2023-08-31T15:33:01;19.90;99.90
5246;DHT22;54412;51.206;6.888;2023-08-31T15:35:28;19.90;99.90
5246;DHT22;54412;51.206;6.888;2023-08-31T15:37:54;19.70;99.90
5246;DHT22;54412;51.206;6.888;2023-08-31T15:40:20;19.70;99.90
5246;DHT22;54412;51.206;6.888;2023-08-31T15:42:47;19.70;99.90
5246;DHT22;54412;51.206;6.888;2023-08-31T15:45:13;19.70;99.90
5246;DHT22;54412;51.206;6.888;2023-08-31T15:47:38;19.70;99.90
5246;DHT22;54412;51.206;6.888;2023-08-31T15:50:04;19.60;99.90
5246;DHT22;54412;51.206;6.888;2023-08-31T15:52:30;19.60;99.90
5246;DHT22;54412;51.206;6.888;2023-08-31T15:54:57;19.40;99.90
5246;DHT22;54412;51.206;6.888;2023-08-31T15:57:24;19.40;99.90
5246;DHT22;54412;51.206;6.888;2023-08-31T15:59:50;19.40;99.90
5246;DHT22;54412;51.206;6.888;2023-08-31T16:02:16;19.40;99.90
5246;DHT22;54412;51.206;6.888;2023-08-31T16:04:42;19.30;99.90